createdAt,value
2017-08-18T00:01:14.958Z,18.30
2017-08-18T00:03:42.413Z,18.30
2017-08-18T00:06:09.989Z,18.10
2017-08-18T00:08:37.540Z,18.20
2017-08-18T00:11:04.993Z,18.10
2017-08-18T00:13:32.558Z,18.00
2017-08-18T00:16:00.113Z,18.10
2017-08-18T00:18:27.575Z,18.10
2017-08-18T00:20:55.045Z,18.20
2017-08-18T00:23:22.593Z,18.20
2017-08-18T00:25:50.154Z,18.20
2017-08-18T00:28:17.599Z,18.20
2017-08-18T00:30:45.077Z,18.00
2017-08-18T00:33:13.515Z,17.90
2017-08-18T00:35:40.970Z,17.90
2017-08-18T00:38:08.420Z,17.90
2017-08-18T00:40:35.881Z,17.90
2017-08-18T00:43:03.361Z,17.90
2017-08-18T00:45:30.837Z,17.90
2017-08-18T00:47:58.298Z,17.80
2017-08-18T00:50:26.536Z,17.60
2017-08-18T00:52:54.014Z,17.60
2017-08-18T00:55:21.578Z,17.60
2017-08-18T00:57:49.037Z,17.50
2017-08-18T01:00:16.491Z,17.50
2017-08-18T01:02:43.953Z,17.50
2017-08-18T01:05:12.213Z,17.50
2017-08-18T01:07:39.686Z,17.40
2017-08-18T01:10:07.137Z,17.50
2017-08-18T01:12:34.599Z,17.50
2017-08-18T01:15:02.826Z,17.50
2017-08-18T01:17:30.290Z,17.50
2017-08-18T01:19:57.753Z,17.50
2017-08-18T01:22:25.330Z,17.50
2017-08-18T01:24:52.893Z,17.40
2017-08-18T01:27:20.353Z,17.30
2017-08-18T01:29:47.817Z,17.40
2017-08-18T01:32:16.081Z,17.20
2017-08-18T01:34:43.557Z,17.20
2017-08-18T01:37:11.813Z,17.20
2017-08-18T01:39:39.290Z,17.10
2017-08-18T01:42:07.550Z,17.10
2017-08-18T01:44:35.813Z,17.10
2017-08-18T01:47:03.278Z,17.10
2017-08-18T01:49:30.829Z,17.10
2017-08-18T01:51:58.399Z,17.10
2017-08-18T01:54:25.950Z,17.10
2017-08-18T01:56:53.509Z,17.20
2017-08-18T01:59:20.969Z,17.10
2017-08-18T02:01:48.956Z,17.10
2017-08-18T02:04:16.421Z,17.00
2017-08-18T02:06:43.916Z,17.00
2017-08-18T02:09:11.354Z,17.00
2017-08-18T02:11:51.831Z,17.00
2017-08-18T02:14:21.373Z,17.00
2017-08-18T02:16:48.824Z,16.90
2017-08-18T02:19:16.313Z,16.90
2017-08-18T02:21:43.778Z,16.90
2017-08-18T02:24:11.293Z,16.90
2017-08-18T02:26:38.756Z,16.90
2017-08-18T02:29:06.218Z,16.90
2017-08-18T02:31:33.844Z,16.90
2017-08-18T02:34:01.512Z,16.90
2017-08-18T02:36:28.979Z,16.80
2017-08-18T02:38:56.438Z,16.80
2017-08-18T02:41:23.909Z,16.80
2017-08-18T02:43:51.361Z,16.80
2017-08-18T02:46:18.841Z,16.80
2017-08-18T02:48:46.297Z,16.80
2017-08-18T02:51:14.526Z,16.70
2017-08-18T02:53:42.006Z,16.70
2017-08-18T02:56:09.480Z,16.60
2017-08-18T02:58:37.738Z,16.60
2017-08-18T03:01:05.210Z,16.60
2017-08-18T03:03:33.437Z,16.50
2017-08-18T03:06:00.920Z,16.50
2017-08-18T03:08:28.396Z,16.60
2017-08-18T03:10:55.853Z,16.60
2017-08-18T03:13:23.309Z,16.60
2017-08-18T03:15:51.575Z,16.70
2017-08-18T03:18:19.038Z,16.70
2017-08-18T03:20:47.270Z,16.80
2017-08-18T03:23:14.746Z,16.80
2017-08-18T03:25:42.214Z,16.80
2017-08-18T03:28:09.766Z,16.80
2017-08-18T03:30:37.336Z,16.80
2017-08-18T03:33:05.371Z,16.80
2017-08-18T03:35:32.834Z,16.70
2017-08-18T03:38:00.305Z,16.80
2017-08-18T03:40:27.766Z,16.80
2017-08-18T03:42:55.236Z,16.70
2017-08-18T03:45:22.693Z,16.70
2017-08-18T03:47:50.930Z,16.60
2017-08-18T03:50:18.400Z,16.60
2017-08-18T03:52:45.874Z,16.70
2017-08-18T03:55:13.438Z,16.60
2017-08-18T03:57:40.917Z,16.70
2017-08-18T04:00:12.093Z,16.70
2017-08-18T04:02:39.554Z,16.80
2017-08-18T04:05:07.036Z,16.70
2017-08-18T04:07:34.501Z,16.70
2017-08-18T04:10:01.969Z,16.80
2017-08-18T04:12:30.198Z,16.70
2017-08-18T04:14:57.665Z,16.70
2017-08-18T04:17:25.145Z,16.60
2017-08-18T04:19:52.618Z,16.60
2017-08-18T04:22:20.885Z,16.40
2017-08-18T04:24:48.353Z,16.40
2017-08-18T04:27:16.585Z,16.60
2017-08-18T04:29:44.073Z,16.60
2017-08-18T04:32:11.536Z,16.70
2017-08-18T04:34:39.767Z,16.80
2017-08-18T04:37:07.263Z,16.80
2017-08-18T04:39:34.732Z,16.90
2017-08-18T04:42:03.789Z,16.90
2017-08-18T04:44:31.289Z,16.90
2017-08-18T04:46:58.762Z,16.90
2017-08-18T04:49:26.278Z,17.10
2017-08-18T04:51:53.753Z,17.40
2017-08-18T04:54:21.209Z,17.50
2017-08-18T04:56:49.434Z,17.90
2017-08-18T04:59:16.897Z,17.80
2017-08-18T05:01:44.374Z,18.10
2017-08-18T05:04:11.834Z,18.20
2017-08-18T05:06:39.298Z,18.50
2017-08-18T05:09:06.846Z,18.70
2017-08-18T05:11:34.308Z,18.80
2017-08-18T05:14:01.772Z,18.70
2017-08-18T05:16:29.234Z,18.50
2017-08-18T05:18:57.459Z,18.50
2017-08-18T05:21:24.925Z,18.50
2017-08-18T05:23:52.388Z,18.60
2017-08-18T05:26:19.961Z,18.70
2017-08-18T05:28:47.530Z,18.90
2017-08-18T05:31:14.999Z,19.20
2017-08-18T05:33:43.227Z,20.00
2017-08-18T05:36:10.684Z,20.00
2017-08-18T05:38:38.165Z,20.00
2017-08-18T05:41:05.635Z,19.60
2017-08-18T05:43:33.090Z,19.30
2017-08-18T05:46:00.635Z,19.10
2017-08-18T05:48:28.093Z,19.20
2017-08-18T05:50:55.662Z,19.40
2017-08-18T05:53:23.134Z,19.60
2017-08-18T05:55:50.584Z,19.80
2017-08-18T05:58:18.813Z,19.80
2017-08-18T06:00:46.301Z,19.80
2017-08-18T06:03:13.758Z,19.70
2017-08-18T06:05:41.218Z,19.80
2017-08-18T06:08:08.840Z,20.00
2017-08-18T06:10:36.338Z,20.40
2017-08-18T06:13:03.793Z,20.70
2017-08-18T06:15:31.249Z,21.00
2017-08-18T06:17:58.722Z,21.00
2017-08-18T06:20:26.950Z,21.70
2017-08-18T06:22:54.411Z,21.70
2017-08-18T06:25:21.865Z,21.70
2017-08-18T06:27:49.317Z,21.80
2017-08-18T06:30:16.772Z,21.80
2017-08-18T06:32:44.263Z,22.00
2017-08-18T06:35:11.711Z,21.90
2017-08-18T06:37:39.161Z,22.10
2017-08-18T06:40:06.739Z,22.30
2017-08-18T06:42:34.185Z,22.50
2017-08-18T06:45:01.785Z,22.70
2017-08-18T06:47:29.886Z,22.50
2017-08-18T06:49:57.362Z,22.50
2017-08-18T06:52:24.810Z,22.80
2017-08-18T06:54:52.276Z,22.90
2017-08-18T06:57:19.739Z,22.90
2017-08-18T06:59:47.205Z,23.40
2017-08-18T07:02:14.659Z,23.60
2017-08-18T07:04:42.129Z,23.60
2017-08-18T07:07:09.671Z,23.20
2017-08-18T07:09:37.129Z,22.50
2017-08-18T07:12:04.587Z,22.30
2017-08-18T07:14:32.054Z,22.50
2017-08-18T07:16:59.502Z,22.20
2017-08-18T07:19:26.959Z,22.10
2017-08-18T07:21:54.414Z,22.30
2017-08-18T07:24:21.873Z,22.50
2017-08-18T07:26:49.331Z,22.70
2017-08-18T07:29:16.888Z,22.90
2017-08-18T07:31:44.351Z,23.00
2017-08-18T07:34:11.811Z,23.20
2017-08-18T07:36:40.027Z,23.20
2017-08-18T07:39:07.485Z,23.20
2017-08-18T07:41:34.925Z,23.30
2017-08-18T07:44:02.406Z,23.40
2017-08-18T07:46:29.964Z,23.50
2017-08-18T07:48:57.410Z,23.70
2017-08-18T07:51:24.861Z,23.80
2017-08-18T07:53:52.315Z,23.90
2017-08-18T07:56:19.771Z,23.90
2017-08-18T07:58:47.217Z,24.10
2017-08-18T08:01:14.686Z,23.90
2017-08-18T08:03:42.138Z,24.10
2017-08-18T08:06:09.653Z,24.30
2017-08-18T08:08:37.200Z,23.50
2017-08-18T08:11:04.761Z,23.20
2017-08-18T08:13:32.318Z,23.00
2017-08-18T08:15:59.787Z,23.10
2017-08-18T08:18:27.246Z,23.20
2017-08-18T08:20:54.699Z,23.10
2017-08-18T08:23:22.143Z,22.90
2017-08-18T08:25:49.605Z,22.90
2017-08-18T08:28:17.158Z,22.90
2017-08-18T08:30:44.605Z,22.80
2017-08-18T08:33:12.065Z,22.90
2017-08-18T08:35:39.521Z,23.00
2017-08-18T08:38:06.981Z,23.00
2017-08-18T08:40:34.993Z,23.10
2017-08-18T08:43:03.218Z,23.20
2017-08-18T08:45:30.675Z,23.20
2017-08-18T08:47:58.161Z,23.40
2017-08-18T08:50:25.597Z,23.90
2017-08-18T08:52:53.054Z,24.00
2017-08-18T08:55:20.617Z,24.00
2017-08-18T08:57:48.081Z,24.20
2017-08-18T09:00:15.534Z,24.20
2017-08-18T09:02:42.994Z,24.40
2017-08-18T09:05:10.446Z,24.60
2017-08-18T09:07:38.121Z,24.70
2017-08-18T09:10:05.673Z,24.70
2017-08-18T09:12:33.220Z,24.70
2017-08-18T09:15:00.775Z,24.90
2017-08-18T09:17:28.220Z,24.70
2017-08-18T09:19:55.688Z,24.90
2017-08-18T09:22:23.140Z,25.00
2017-08-18T09:24:50.592Z,25.10
2017-08-18T09:27:18.071Z,25.10
2017-08-18T09:29:45.623Z,25.20
2017-08-18T09:32:13.061Z,25.40
2017-08-18T09:34:40.637Z,25.50
2017-08-18T09:37:08.081Z,25.40
2017-08-18T09:39:35.649Z,25.40
2017-08-18T09:42:03.094Z,25.30
2017-08-18T09:44:30.641Z,25.20
2017-08-18T09:46:58.096Z,25.50
2017-08-18T09:49:37.273Z,25.80
2017-08-18T09:52:17.402Z,26.10
2017-08-18T09:54:56.817Z,26.10
2017-08-18T09:57:36.201Z,25.80
2017-08-18T10:00:04.454Z,26.20
2017-08-18T10:02:31.910Z,26.20
2017-08-18T10:04:59.373Z,26.30
2017-08-18T10:07:26.836Z,26.30
2017-08-18T10:09:54.373Z,26.30
2017-08-18T10:12:21.826Z,26.20
2017-08-18T10:14:49.273Z,26.00
2017-08-18T10:17:16.750Z,26.00
2017-08-18T10:19:44.203Z,26.00
2017-08-18T10:22:11.659Z,26.10
2017-08-18T10:24:39.111Z,26.00
2017-08-18T10:27:06.568Z,26.10
2017-08-18T10:29:34.024Z,26.00
2017-08-18T10:32:01.483Z,26.00
2017-08-18T10:34:28.950Z,26.00
2017-08-18T10:36:56.422Z,26.30
2017-08-18T10:39:24.647Z,26.30
2017-08-18T10:41:52.094Z,26.30
2017-08-18T10:44:19.553Z,26.40
2017-08-18T10:46:47.041Z,26.40
2017-08-18T10:49:14.494Z,26.60
2017-08-18T10:51:42.058Z,26.70
2017-08-18T10:54:09.513Z,27.10
2017-08-18T10:56:37.068Z,27.50
2017-08-18T10:59:04.520Z,27.10
2017-08-18T11:01:31.985Z,27.20
2017-08-18T11:03:59.444Z,27.40
2017-08-18T11:06:26.889Z,27.70
2017-08-18T11:08:54.341Z,27.50
2017-08-18T11:11:21.797Z,27.00
2017-08-18T11:13:49.262Z,27.00
2017-08-18T11:16:16.707Z,27.10
2017-08-18T11:18:44.170Z,27.50
2017-08-18T11:21:11.630Z,27.50
2017-08-18T11:23:39.200Z,27.70
2017-08-18T11:26:06.751Z,27.70
2017-08-18T11:28:34.217Z,28.00
2017-08-18T11:31:01.662Z,28.20
2017-08-18T11:33:29.121Z,28.20
2017-08-18T11:35:56.605Z,28.30
2017-08-18T11:38:24.854Z,28.30
2017-08-18T11:40:52.409Z,28.20
2017-08-18T11:43:19.856Z,28.50
2017-08-18T11:45:47.398Z,28.20
2017-08-18T11:48:14.855Z,28.10
2017-08-18T11:50:42.296Z,28.00
2017-08-18T11:53:09.742Z,27.90
2017-08-18T11:55:37.193Z,28.20
2017-08-18T11:58:04.711Z,28.60
2017-08-18T12:00:32.274Z,29.00
2017-08-18T12:02:59.732Z,29.00
2017-08-18T12:05:27.196Z,29.00
2017-08-18T12:07:54.646Z,29.00
2017-08-18T12:10:22.104Z,29.30
2017-08-18T12:12:49.564Z,29.60
2017-08-18T12:15:17.022Z,29.60
2017-08-18T12:17:44.469Z,29.40
2017-08-18T12:20:12.020Z,29.60
2017-08-18T12:22:39.581Z,29.70
2017-08-18T12:25:07.028Z,29.20
2017-08-18T12:27:34.490Z,28.90
2017-08-18T12:30:01.943Z,28.80
2017-08-18T12:32:29.403Z,29.00
2017-08-18T12:34:56.846Z,29.20
2017-08-18T12:37:24.302Z,29.30
2017-08-18T12:39:51.752Z,29.60
2017-08-18T12:42:19.201Z,29.70
2017-08-18T12:44:46.653Z,29.70
2017-08-18T12:47:14.109Z,29.80
2017-08-18T12:49:41.565Z,29.50
2017-08-18T12:52:09.022Z,29.50
2017-08-18T12:54:36.510Z,29.70
2017-08-18T12:57:03.953Z,29.50
2017-08-18T12:59:31.438Z,29.20
2017-08-18T13:01:58.977Z,29.10
2017-08-18T13:04:26.542Z,29.10
2017-08-18T13:06:53.996Z,29.40
2017-08-18T13:09:21.476Z,29.60
2017-08-18T13:11:48.926Z,29.50
2017-08-18T13:14:16.377Z,29.20
2017-08-18T13:16:43.831Z,29.60
2017-08-18T13:19:11.288Z,29.60
2017-08-18T13:21:38.834Z,29.70
2017-08-18T13:24:06.292Z,29.50
2017-08-18T13:26:33.746Z,29.80
2017-08-18T13:29:01.203Z,29.80
2017-08-18T13:31:28.653Z,29.80
2017-08-18T13:33:56.104Z,29.80
2017-08-18T13:36:23.553Z,29.90
2017-08-18T13:38:51.002Z,30.00
2017-08-18T13:41:18.486Z,29.80
2017-08-18T13:43:45.935Z,29.70
2017-08-18T13:46:13.405Z,29.70
2017-08-18T13:48:40.850Z,30.00
2017-08-18T13:51:08.309Z,30.40
2017-08-18T13:53:35.772Z,30.50
2017-08-18T13:56:03.221Z,30.30
2017-08-18T13:58:30.781Z,29.90
2017-08-18T14:00:58.243Z,29.80
2017-08-18T14:03:25.690Z,29.40
2017-08-18T14:05:53.146Z,29.10
2017-08-18T14:08:20.608Z,29.00
2017-08-18T14:10:48.077Z,28.60
2017-08-18T14:13:15.621Z,28.60
2017-08-18T14:15:43.094Z,28.50
2017-08-18T14:18:10.551Z,28.40
2017-08-18T14:20:38.006Z,28.70
2017-08-18T14:23:05.453Z,28.90
2017-08-18T14:25:38.659Z,28.80
2017-08-18T14:28:06.110Z,28.30
2017-08-18T14:30:33.566Z,27.80
2017-08-18T14:33:01.023Z,27.70
2017-08-18T14:35:28.488Z,27.70
2017-08-18T14:37:56.757Z,27.20
2017-08-18T14:40:24.221Z,27.20
2017-08-18T14:42:52.449Z,26.70
2017-08-18T14:45:19.925Z,26.70
2017-08-18T14:47:47.369Z,26.50
2017-08-18T14:50:14.832Z,26.10
2017-08-18T14:52:42.285Z,25.80
2017-08-18T14:55:09.739Z,25.50
2017-08-18T14:57:37.198Z,25.50
2017-08-18T15:00:04.674Z,25.20
2017-08-18T15:02:32.140Z,24.90
2017-08-18T15:04:59.585Z,24.70
2017-08-18T15:07:27.138Z,24.60
2017-08-18T15:09:54.590Z,24.60
2017-08-18T15:12:22.045Z,24.40
2017-08-18T15:14:49.491Z,24.30
2017-08-18T15:17:16.962Z,24.10
2017-08-18T15:19:44.421Z,24.00
2017-08-18T15:22:11.981Z,24.00
2017-08-18T15:24:39.425Z,23.80
2017-08-18T15:27:06.902Z,23.60
2017-08-18T15:29:34.457Z,23.30
2017-08-18T15:32:01.907Z,23.10
2017-08-18T15:34:29.478Z,23.20
2017-08-18T15:37:00.167Z,23.30
2017-08-18T15:39:27.601Z,23.30
2017-08-18T15:41:55.349Z,23.20
2017-08-18T15:44:24.440Z,22.40
2017-08-18T15:46:52.766Z,21.50
2017-08-18T15:49:20.249Z,21.50
2017-08-18T15:51:47.702Z,20.50
2017-08-18T15:54:15.942Z,20.20
2017-08-18T15:56:46.080Z,20.00
2017-08-18T15:59:13.730Z,19.80
2017-08-18T16:01:41.187Z,19.70
2017-08-18T16:04:08.655Z,19.50
2017-08-18T16:06:36.101Z,19.50
2017-08-18T16:09:03.558Z,19.30
2017-08-18T16:11:31.011Z,19.20
2017-08-18T16:13:58.528Z,19.00
2017-08-18T16:16:28.272Z,18.90
2017-08-18T16:18:55.725Z,18.90
2017-08-18T16:21:23.212Z,18.90
2017-08-18T16:23:50.666Z,18.90
2017-08-18T16:26:18.174Z,18.80
2017-08-18T16:28:48.344Z,18.80
2017-08-18T16:31:17.250Z,18.90
2017-08-18T16:33:44.702Z,18.90
2017-08-18T16:36:12.229Z,18.90
2017-08-18T16:38:39.680Z,18.90
2017-08-18T16:41:07.144Z,18.80
2017-08-18T16:43:34.593Z,18.80
2017-08-18T16:46:02.082Z,18.80
2017-08-18T16:48:29.633Z,18.70
2017-08-18T16:50:57.189Z,18.70
2017-08-18T16:53:24.644Z,18.50
2017-08-18T16:55:52.094Z,18.50
2017-08-18T16:58:19.549Z,18.40
2017-08-18T17:00:47.014Z,18.40
2017-08-18T17:03:14.481Z,18.40
2017-08-18T17:05:41.955Z,18.40
2017-08-18T17:08:10.183Z,18.30
2017-08-18T17:10:37.639Z,18.30
2017-08-18T17:13:05.125Z,18.20
2017-08-18T17:15:32.577Z,18.20
2017-08-18T17:18:00.034Z,18.10
2017-08-18T17:20:27.489Z,18.10
2017-08-18T17:22:54.950Z,18.00
2017-08-18T17:25:22.405Z,17.80
2017-08-18T17:27:49.876Z,17.80
2017-08-18T17:30:17.330Z,17.70
2017-08-18T17:32:44.795Z,17.70
2017-08-18T17:35:12.328Z,17.70
2017-08-18T17:37:39.900Z,17.70
2017-08-18T17:40:07.363Z,17.70
2017-08-18T17:42:34.826Z,17.60
2017-08-18T17:45:03.057Z,17.60
2017-08-18T17:47:30.525Z,17.50
2017-08-18T17:49:57.989Z,17.60
2017-08-18T17:52:25.458Z,17.60
2017-08-18T17:54:52.915Z,17.60
2017-08-18T17:57:20.379Z,17.50
2017-08-18T17:59:47.830Z,17.50
2017-08-18T18:02:15.281Z,17.50
2017-08-18T18:04:42.745Z,17.70
2017-08-18T18:07:10.211Z,17.70
2017-08-18T18:09:38.454Z,17.60
2017-08-18T18:12:05.901Z,17.60
2017-08-18T18:14:33.365Z,17.60
2017-08-18T18:17:00.927Z,17.50
2017-08-18T18:19:28.407Z,17.60
2017-08-18T18:21:55.963Z,17.70
2017-08-18T18:24:23.421Z,17.70
2017-08-18T18:26:51.646Z,17.50
2017-08-18T18:29:19.135Z,17.50
2017-08-18T18:31:46.598Z,17.70
2017-08-18T18:34:14.055Z,17.60
2017-08-18T18:36:41.510Z,17.50
2017-08-18T18:39:08.984Z,17.50
2017-08-18T18:41:37.246Z,17.50
2017-08-18T18:44:04.736Z,17.40
2017-08-18T18:46:32.177Z,17.40
2017-08-18T18:49:00.402Z,17.20
2017-08-18T18:51:27.849Z,17.20
2017-08-18T18:53:55.317Z,17.20
2017-08-18T18:56:22.773Z,17.20
2017-08-18T18:58:50.237Z,17.20
2017-08-18T19:01:17.690Z,17.20
2017-08-18T19:03:45.166Z,17.20
2017-08-18T19:06:12.627Z,17.20
2017-08-18T19:08:40.171Z,17.10
2017-08-18T19:11:07.738Z,17.20
2017-08-18T19:13:35.187Z,17.30
2017-08-18T19:16:02.645Z,17.40
2017-08-18T19:18:30.106Z,17.40
2017-08-18T19:20:57.566Z,17.40
2017-08-18T19:23:25.019Z,17.40
2017-08-18T19:25:52.483Z,17.40
2017-08-18T19:28:19.934Z,17.40
2017-08-18T19:30:47.566Z,17.50
2017-08-18T19:33:15.027Z,17.50
2017-08-18T19:35:42.527Z,17.50
2017-08-18T19:38:09.970Z,17.40
2017-08-18T19:40:37.435Z,17.40
2017-08-18T19:43:05.659Z,17.40
2017-08-18T19:45:33.249Z,17.40
2017-08-18T19:48:00.698Z,17.40
2017-08-18T19:50:34.290Z,17.30
2017-08-18T19:53:01.754Z,17.40
2017-08-18T19:55:32.015Z,17.30
2017-08-18T19:58:00.250Z,17.20
2017-08-18T20:00:27.826Z,17.10
2017-08-18T20:02:55.302Z,17.20
2017-08-18T20:05:23.557Z,17.30
2017-08-18T20:07:51.029Z,17.30
2017-08-18T20:10:19.261Z,17.40
2017-08-18T20:12:46.722Z,17.40
2017-08-18T20:15:16.953Z,17.30
2017-08-18T20:17:44.433Z,17.30
2017-08-18T20:20:12.661Z,17.30
2017-08-18T20:22:40.121Z,17.30
2017-08-18T20:25:08.559Z,17.30
2017-08-18T20:27:36.805Z,17.30
2017-08-18T20:30:04.353Z,17.30
2017-08-18T20:32:32.805Z,17.30
2017-08-18T20:35:01.022Z,17.20
2017-08-18T20:37:28.569Z,17.10
2017-08-18T20:39:56.133Z,17.20
2017-08-18T20:42:23.595Z,17.10
2017-08-18T20:44:51.062Z,17.20
2017-08-18T20:47:19.288Z,17.20
2017-08-18T20:49:50.981Z,17.20
2017-08-18T20:52:19.326Z,17.00
2017-08-18T20:54:46.782Z,16.90
2017-08-18T20:57:14.253Z,16.90
2017-08-18T20:59:41.708Z,17.00
2017-08-18T21:02:09.166Z,17.00
2017-08-18T21:04:36.629Z,16.90
2017-08-18T21:07:04.104Z,16.90
2017-08-18T21:09:32.872Z,17.00
2017-08-18T21:12:00.438Z,17.00
2017-08-18T21:14:27.889Z,17.10
2017-08-18T21:16:55.350Z,17.10
2017-08-18T21:19:22.810Z,17.00
2017-08-18T21:21:50.270Z,17.00
2017-08-18T21:24:17.737Z,17.10
2017-08-18T21:26:45.989Z,17.20
2017-08-18T21:29:13.558Z,17.10
2017-08-18T21:31:41.013Z,17.20
2017-08-18T21:34:08.482Z,17.30
2017-08-18T21:36:36.538Z,17.30
2017-08-18T21:39:03.992Z,17.30
2017-08-18T21:41:31.445Z,17.40
2017-08-18T21:43:58.908Z,17.30
2017-08-18T21:46:26.357Z,17.20
2017-08-18T21:48:53.924Z,17.20
2017-08-18T21:51:21.379Z,17.30
2017-08-18T21:53:48.929Z,17.30
2017-08-18T21:56:16.489Z,17.40
2017-08-18T21:58:43.958Z,17.30
2017-08-18T22:02:37.628Z,17.30
2017-08-18T22:05:05.186Z,17.20
2017-08-18T22:07:32.639Z,17.30
2017-08-18T22:10:00.095Z,17.30
2017-08-18T22:12:27.551Z,17.30
2017-08-18T22:14:55.120Z,17.30
2017-08-18T22:17:22.701Z,17.20
2017-08-18T22:19:50.158Z,17.20
2017-08-18T22:22:18.382Z,17.10
2017-08-18T22:24:47.194Z,17.10
2017-08-18T22:27:17.992Z,17.20
2017-08-18T22:29:45.958Z,17.30
2017-08-18T22:32:14.074Z,17.20
2017-08-18T22:34:41.637Z,17.20
2017-08-18T22:37:09.189Z,17.30
2017-08-18T22:39:36.751Z,17.30
2017-08-18T22:42:07.013Z,17.30
2017-08-18T22:44:34.449Z,17.20
2017-08-18T22:47:02.674Z,17.20
2017-08-18T22:49:30.133Z,17.20
2017-08-18T22:51:57.585Z,17.20
2017-08-18T22:54:25.046Z,17.20
2017-08-18T22:56:52.510Z,17.20
2017-08-18T22:59:20.075Z,17.20
2017-08-18T23:01:47.538Z,17.10
2017-08-18T23:04:15.089Z,17.00
2017-08-18T23:06:42.554Z,17.10
2017-08-18T23:09:10.101Z,17.10
2017-08-18T23:11:37.581Z,17.10
2017-08-18T23:14:05.029Z,17.00
2017-08-18T23:16:32.544Z,17.00
2017-08-18T23:18:59.998Z,17.00
2017-08-18T23:21:27.454Z,16.90
2017-08-18T23:23:54.913Z,16.80
2017-08-18T23:26:22.373Z,16.70
2017-08-18T23:28:49.830Z,16.50
2017-08-18T23:31:17.282Z,16.40
2017-08-18T23:33:44.737Z,16.30
2017-08-18T23:36:12.222Z,16.10
2017-08-18T23:38:39.688Z,16.00
2017-08-18T23:41:07.137Z,16.00
2017-08-18T23:43:34.694Z,15.90
2017-08-18T23:46:02.146Z,15.90
2017-08-18T23:48:29.705Z,15.90
2017-08-18T23:50:57.275Z,15.90
2017-08-18T23:53:24.721Z,15.90
2017-08-18T23:55:52.181Z,15.90
2017-08-18T23:58:19.639Z,15.90
